createdAt,value
2019-05-06T00:00:34.197Z,91.33
2019-05-06T00:03:01.141Z,91.69
2019-05-06T00:05:28.057Z,92.21
2019-05-06T00:07:55.217Z,92.37
2019-05-06T00:10:25.226Z,92.29
2019-05-06T00:12:53.573Z,92.27
2019-05-06T00:15:20.504Z,92.51
2019-05-06T00:17:47.385Z,92.39
2019-05-06T00:20:14.771Z,92.42
2019-05-06T00:22:43.595Z,92.54
2019-05-06T00:25:14.070Z,92.65
2019-05-06T00:27:45.881Z,92.90
2019-05-06T00:30:14.884Z,92.96
2019-05-06T00:32:44.184Z,92.72
2019-05-06T00:35:10.949Z,92.82
2019-05-06T00:37:37.790Z,93.06
2019-05-06T00:40:07.403Z,93.57
2019-05-06T00:42:36.101Z,94.06
2019-05-06T00:45:05.310Z,94.55
2019-05-06T00:47:34.050Z,95.21
2019-05-06T00:50:00.924Z,95.81
2019-05-06T00:52:28.276Z,96.53
2019-05-06T00:54:56.134Z,96.93
2019-05-06T00:57:24.764Z,97.17
2019-05-06T00:59:53.789Z,97.60
2019-05-06T01:02:23.365Z,98.09
2019-05-06T01:04:50.775Z,98.73
2019-05-06T01:07:18.415Z,99.53
2019-05-06T01:09:45.254Z,99.81
2019-05-06T01:12:14.346Z,99.69
2019-05-06T01:14:48.896Z,99.81
2019-05-06T01:17:15.846Z,100.00
2019-05-06T01:19:43.184Z,100.00
2019-05-06T01:22:10.232Z,100.00
2019-05-06T01:24:37.078Z,99.76
2019-05-06T01:27:04.748Z,100.00
2019-05-06T01:29:31.640Z,100.00
2019-05-06T01:31:59.138Z,100.00
2019-05-06T01:34:26.864Z,100.00
2019-05-06T01:36:54.646Z,100.00
2019-05-06T01:39:24.519Z,100.00
2019-05-06T01:41:56.849Z,100.00
2019-05-06T01:44:24.399Z,100.00
2019-05-06T01:46:54.151Z,99.93
2019-05-06T01:49:21.954Z,99.72
2019-05-06T01:51:49.276Z,99.57
2019-05-06T01:54:16.611Z,99.65
2019-05-06T01:56:44.466Z,99.90
2019-05-06T01:59:13.921Z,99.70
2019-05-06T02:01:54.764Z,100.00
2019-05-06T02:04:10.836Z,100.00
2019-05-06T02:06:38.330Z,100.00
2019-05-06T02:09:10.739Z,100.00
2019-05-06T02:11:38.864Z,100.00
2019-05-06T02:14:06.587Z,100.00
2019-05-06T02:16:34.507Z,100.00
2019-05-06T02:19:04.022Z,100.00
2019-05-06T02:21:33.627Z,100.00
2019-05-06T02:24:04.265Z,100.00
2019-05-06T02:26:31.928Z,100.00
2019-05-06T02:29:01.076Z,100.00
2019-05-06T02:31:46.929Z,100.00
2019-05-06T02:34:19.502Z,100.00
2019-05-06T02:36:48.823Z,100.00
2019-05-06T02:39:16.371Z,99.87
2019-05-06T02:41:43.707Z,99.85
2019-05-06T02:44:13.695Z,99.53
2019-05-06T02:46:44.128Z,99.75
2019-05-06T02:49:13.534Z,99.61
2019-05-06T02:51:44.240Z,99.84
2019-05-06T02:54:13.392Z,99.84
2019-05-06T02:56:40.213Z,99.66
2019-05-06T02:59:07.775Z,99.72
2019-05-06T03:01:36.132Z,99.79
2019-05-06T03:04:04.617Z,99.50
2019-05-06T03:06:33.819Z,99.24
2019-05-06T03:09:02.968Z,99.14
2019-05-06T03:11:29.058Z,99.07
2019-05-06T03:13:55.703Z,98.92
2019-05-06T03:16:23.728Z,98.74
2019-05-06T03:18:53.172Z,98.67
2019-05-06T03:21:24.682Z,98.75
2019-05-06T03:23:54.259Z,98.03
2019-05-06T03:26:23.585Z,98.26
2019-05-06T03:28:53.584Z,98.15
2019-05-06T03:31:25.327Z,98.00
2019-05-06T03:34:09.084Z,98.07
2019-05-06T03:36:27.051Z,98.04
2019-05-06T03:38:47.959Z,97.84
2019-05-06T03:41:15.054Z,97.69
2019-05-06T03:43:43.391Z,97.71
2019-05-06T03:46:28.872Z,97.58
2019-05-06T03:49:03.519Z,97.31
2019-05-06T03:51:30.158Z,97.24
2019-05-06T03:53:57.824Z,97.09
2019-05-06T03:56:25.931Z,97.18
2019-05-06T03:58:54.055Z,97.10
2019-05-06T04:01:23.968Z,96.90
2019-05-06T04:03:53.775Z,97.29
2019-05-06T04:06:23.876Z,97.34
2019-05-06T04:08:49.514Z,97.69
2019-05-06T04:11:17.286Z,98.22
2019-05-06T04:13:46.705Z,98.61
2019-05-06T04:16:16.229Z,99.04
2019-05-06T04:19:03.852Z,98.97
2019-05-06T04:21:43.601Z,98.99
2019-05-06T04:24:28.497Z,98.95
2019-05-06T04:27:16.683Z,98.99
2019-05-06T04:29:44.700Z,98.96
2019-05-06T04:32:13.837Z,98.78
2019-05-06T04:34:43.086Z,98.60
2019-05-06T04:37:10.860Z,98.86
2019-05-06T04:39:38.581Z,99.22
2019-05-06T04:42:09.113Z,99.48
2019-05-06T04:44:34.038Z,99.57
2019-05-06T04:47:05.095Z,99.40
2019-05-06T04:49:33.112Z,100.00
2019-05-06T04:52:03.418Z,100.00
2019-05-06T04:54:29.574Z,100.00
2019-05-06T04:56:56.517Z,100.00
2019-05-06T04:59:23.519Z,100.00
2019-05-06T05:01:53.185Z,100.00
2019-05-06T05:04:28.397Z,100.00
2019-05-06T05:06:48.974Z,100.00
2019-05-06T05:09:17.738Z,100.00
2019-05-06T05:11:53.011Z,100.00
2019-05-06T05:14:38.649Z,100.00
2019-05-06T05:17:23.683Z,100.00
2019-05-06T05:19:52.340Z,100.00
2019-05-06T05:22:19.195Z,100.00
2019-05-06T05:24:46.445Z,100.00
2019-05-06T05:27:14.026Z,100.00
2019-05-06T05:29:42.406Z,100.00
2019-05-06T05:32:10.117Z,100.00
2019-05-06T05:34:40.682Z,100.00
2019-05-06T05:37:07.049Z,100.00
2019-05-06T05:39:33.884Z,100.00
2019-05-06T05:42:03.044Z,99.99
2019-05-06T05:44:32.417Z,100.00
2019-05-06T05:46:59.957Z,100.00
2019-05-06T05:49:32.436Z,100.00
2019-05-06T05:51:59.658Z,99.98
2019-05-06T05:54:26.656Z,99.50
2019-05-06T05:56:53.470Z,98.77
2019-05-06T05:59:23.246Z,98.59
2019-05-06T06:01:49.939Z,98.37
2019-05-06T06:04:16.665Z,97.93
2019-05-06T06:06:43.515Z,97.92
2019-05-06T06:09:12.695Z,97.96
2019-05-06T06:11:50.320Z,97.81
2019-05-06T06:14:35.399Z,97.96
2019-05-06T06:17:04.187Z,98.20
2019-05-06T06:19:32.953Z,97.62
2019-05-06T06:22:02.707Z,97.67
2019-05-06T06:24:32.204Z,97.67
2019-05-06T06:26:59.302Z,97.22
2019-05-06T06:29:26.553Z,96.71
2019-05-06T06:32:13.580Z,95.92
2019-05-06T06:35:10.117Z,94.61
2019-05-06T06:37:30.432Z,94.34
2019-05-06T06:39:59.173Z,94.01
2019-05-06T06:42:26.161Z,93.50
2019-05-06T06:44:53.347Z,92.95
2019-05-06T06:47:22.415Z,92.61
2019-05-06T06:49:49.984Z,92.29
2019-05-06T06:52:17.686Z,92.32
2019-05-06T06:54:44.903Z,92.45
2019-05-06T06:57:32.237Z,90.85
2019-05-06T07:00:04.079Z,89.25
2019-05-06T07:02:36.982Z,88.61
2019-05-06T07:05:28.166Z,87.49
2019-05-06T07:07:53.222Z,87.27
2019-05-06T07:10:38.111Z,86.24
2019-05-06T07:13:04.936Z,82.29
2019-05-06T07:15:33.654Z,81.27
2019-05-06T07:18:02.350Z,80.70
2019-05-06T07:20:39.803Z,81.28
2019-05-06T07:23:25.997Z,82.25
2019-05-06T07:25:54.033Z,81.78
2019-05-06T07:28:24.975Z,80.43
2019-05-06T07:30:53.068Z,78.51
2019-05-06T07:33:22.664Z,75.53
2019-05-06T07:35:52.632Z,75.86
2019-05-06T07:38:18.974Z,74.44
2019-05-06T07:40:47.874Z,73.55
2019-05-06T07:43:33.938Z,72.04
2019-05-06T07:46:02.591Z,73.27
2019-05-06T07:48:29.396Z,72.13
2019-05-06T07:50:56.582Z,70.61
2019-05-06T07:53:24.212Z,68.24
2019-05-06T07:55:52.490Z,69.87
2019-05-06T07:58:19.360Z,69.57
2019-05-06T08:00:46.975Z,68.96
2019-05-06T08:03:14.212Z,67.20
2019-05-06T08:05:54.238Z,65.69
2019-05-06T08:08:09.889Z,65.62
2019-05-06T08:10:37.538Z,65.63
2019-05-06T08:13:04.653Z,64.15
2019-05-06T08:15:32.749Z,65.38
2019-05-06T08:18:00.301Z,66.61
2019-05-06T08:20:36.479Z,66.20
2019-05-06T08:23:15.223Z,65.07
2019-05-06T08:25:44.066Z,64.40
2019-05-06T08:28:13.227Z,63.90
2019-05-06T08:30:42.872Z,62.66
2019-05-06T08:33:09.806Z,64.00
2019-05-06T08:35:37.606Z,64.29
2019-05-06T08:38:05.197Z,64.49
2019-05-06T08:40:32.222Z,64.29
2019-05-06T08:43:02.183Z,64.01
2019-05-06T08:45:28.985Z,64.29
2019-05-06T08:47:56.819Z,65.74
2019-05-06T08:50:38.406Z,63.85
2019-05-06T08:53:06.907Z,63.95
2019-05-06T08:55:36.835Z,64.81
2019-05-06T08:58:03.728Z,65.81
2019-05-06T09:00:32.326Z,67.57
2019-05-06T09:02:59.846Z,67.46
2019-05-06T09:05:26.965Z,66.03
2019-05-06T09:07:53.853Z,64.17
2019-05-06T09:10:22.754Z,62.76
2019-05-06T09:12:52.365Z,62.34
2019-05-06T09:15:21.843Z,61.51
2019-05-06T09:17:48.101Z,59.52
2019-05-06T09:20:15.655Z,59.34
2019-05-06T09:22:43.338Z,59.49
2019-05-06T09:25:12.827Z,59.09
2019-05-06T09:27:47.697Z,58.76
2019-05-06T09:30:18.060Z,58.59
2019-05-06T09:32:45.031Z,57.56
2019-05-06T09:35:13.082Z,57.68
2019-05-06T09:37:42.986Z,58.81
2019-05-06T09:40:12.576Z,59.30
2019-05-06T09:42:39.613Z,57.95
2019-05-06T09:45:08.175Z,56.51
2019-05-06T09:47:48.539Z,56.68
2019-05-06T09:50:18.860Z,56.61
2019-05-06T09:52:46.081Z,56.37
2019-05-06T09:55:32.565Z,57.01
2019-05-06T09:58:07.175Z,57.10
2019-05-06T10:00:38.408Z,55.16
2019-05-06T10:03:05.123Z,55.73
2019-05-06T10:05:32.142Z,55.39
2019-05-06T10:07:59.825Z,52.88
2019-05-06T10:10:26.474Z,51.06
2019-05-06T10:12:54.101Z,51.29
2019-05-06T10:15:22.073Z,51.40
2019-05-06T10:18:06.860Z,51.87
2019-05-06T10:20:38.294Z,52.12
2019-05-06T10:23:06.432Z,51.01
2019-05-06T10:25:33.146Z,52.14
2019-05-06T10:28:02.824Z,50.72
2019-05-06T10:30:30.048Z,49.81
2019-05-06T10:32:58.669Z,49.21
2019-05-06T10:35:29.163Z,49.36
2019-05-06T10:38:14.074Z,49.79
2019-05-06T10:41:00.768Z,49.93
2019-05-06T10:43:45.387Z,49.62
2019-05-06T10:46:13.157Z,48.26
2019-05-06T10:48:42.254Z,48.32
2019-05-06T10:51:22.938Z,48.24
2019-05-06T10:53:50.613Z,48.29
2019-05-06T10:56:28.090Z,48.77
2019-05-06T10:58:56.073Z,48.92
2019-05-06T11:01:27.164Z,48.63
2019-05-06T11:03:54.391Z,48.90
2019-05-06T11:06:22.129Z,48.26
2019-05-06T11:08:49.152Z,48.52
2019-05-06T11:11:31.240Z,48.00
2019-05-06T11:13:45.786Z,48.73
2019-05-06T11:16:13.085Z,49.06
2019-05-06T11:18:39.742Z,49.25
2019-05-06T11:21:06.633Z,49.35
2019-05-06T11:23:33.918Z,50.05
2019-05-06T11:26:03.139Z,50.06
2019-05-06T11:28:42.656Z,50.53
2019-05-06T11:31:16.796Z,51.21
2019-05-06T11:33:45.326Z,50.89
2019-05-06T11:36:15.137Z,50.75
2019-05-06T11:38:43.123Z,50.94
2019-05-06T11:41:13.201Z,50.58
2019-05-06T11:43:40.023Z,50.70
2019-05-06T11:46:07.155Z,50.63
2019-05-06T11:48:34.124Z,49.48
2019-05-06T11:51:02.905Z,48.89
2019-05-06T11:53:32.461Z,48.51
2019-05-06T11:55:59.138Z,47.79
2019-05-06T11:58:42.481Z,46.96
2019-05-06T12:01:13.433Z,45.62
2019-05-06T12:03:44.713Z,45.31
2019-05-06T12:06:13.894Z,45.07
2019-05-06T12:08:43.010Z,44.75
2019-05-06T12:11:09.297Z,42.84
2019-05-06T12:13:38.237Z,42.56
2019-05-06T12:16:05.805Z,42.14
2019-05-06T12:18:33.175Z,43.13
2019-05-06T12:21:09.007Z,43.00
2019-05-06T12:23:29.250Z,43.99
2019-05-06T12:25:55.945Z,43.54
2019-05-06T12:28:23.013Z,43.56
2019-05-06T12:30:52.263Z,43.76
2019-05-06T12:33:26.285Z,43.01
2019-05-06T12:35:54.297Z,44.59
2019-05-06T12:38:30.267Z,43.27
2019-05-06T12:40:53.004Z,43.12
2019-05-06T12:43:24.645Z,43.34
2019-05-06T12:46:05.115Z,43.18
2019-05-06T12:48:46.214Z,44.50
2019-05-06T12:51:14.143Z,45.53
2019-05-06T12:53:42.814Z,45.25
2019-05-06T12:56:12.270Z,45.07
2019-05-06T12:58:39.157Z,44.67
2019-05-06T13:01:07.123Z,44.85
2019-05-06T13:03:35.250Z,44.76
2019-05-06T13:06:07.474Z,44.64
2019-05-06T13:08:51.708Z,44.59
2019-05-06T13:11:02.622Z,44.28
2019-05-06T13:13:30.133Z,44.35
2019-05-06T13:15:56.998Z,44.31
2019-05-06T13:18:23.717Z,44.32
2019-05-06T13:20:52.325Z,43.22
2019-05-06T13:23:34.655Z,43.14
2019-05-06T13:26:01.927Z,44.00
2019-05-06T13:28:30.743Z,43.61
2019-05-06T13:31:13.526Z,43.53
2019-05-06T13:33:34.130Z,42.86
2019-05-06T13:36:00.972Z,41.74
2019-05-06T13:38:27.720Z,41.49
2019-05-06T13:40:57.480Z,41.43
2019-05-06T13:43:25.302Z,40.25
2019-05-06T13:45:53.992Z,40.90
2019-05-06T13:48:25.428Z,40.54
2019-05-06T13:50:54.445Z,40.32
2019-05-06T13:53:24.505Z,39.86
2019-05-06T13:55:52.469Z,40.46
2019-05-06T13:58:19.265Z,39.13
2019-05-06T14:00:46.649Z,39.19
2019-05-06T14:03:13.741Z,39.89
2019-05-06T14:05:42.533Z,40.01
2019-05-06T14:08:09.719Z,39.93
2019-05-06T14:10:36.859Z,40.49
2019-05-06T14:13:05.750Z,40.21
2019-05-06T14:15:33.618Z,39.58
2019-05-06T14:18:02.599Z,40.35
2019-05-06T14:20:30.592Z,40.13
2019-05-06T14:22:57.205Z,38.32
2019-05-06T14:25:34.618Z,38.36
2019-05-06T14:28:03.400Z,37.00
2019-05-06T14:30:43.020Z,37.22
2019-05-06T14:33:15.110Z,38.88
2019-05-06T14:35:40.338Z,39.00
2019-05-06T14:38:07.228Z,38.95
2019-05-06T14:40:53.471Z,39.54
2019-05-06T14:43:22.728Z,39.97
2019-05-06T14:45:48.832Z,40.21
2019-05-06T14:48:15.927Z,40.82
2019-05-06T14:50:46.127Z,41.37
2019-05-06T14:53:13.113Z,42.10
2019-05-06T14:55:40.230Z,42.09
2019-05-06T14:58:07.167Z,42.76
2019-05-06T15:00:34.395Z,42.78
2019-05-06T15:03:02.270Z,42.48
2019-05-06T15:05:29.157Z,42.81
2019-05-06T15:07:56.585Z,43.25
2019-05-06T15:10:26.515Z,43.04
2019-05-06T15:12:53.519Z,43.19
2019-05-06T15:15:22.744Z,42.73
2019-05-06T15:17:49.197Z,42.75
2019-05-06T15:20:15.926Z,42.68
2019-05-06T15:22:42.555Z,41.74
2019-05-06T15:25:09.564Z,42.27
2019-05-06T15:27:37.004Z,42.57
2019-05-06T15:30:08.040Z,42.80
2019-05-06T15:32:36.577Z,43.09
2019-05-06T15:35:07.155Z,43.46
2019-05-06T15:37:35.906Z,43.41
2019-05-06T15:40:04.092Z,43.44
2019-05-06T15:42:31.340Z,43.77
2019-05-06T15:44:58.023Z,43.74
2019-05-06T15:47:24.860Z,44.13
2019-05-06T15:49:52.822Z,44.66
2019-05-06T15:52:23.514Z,44.96
2019-05-06T15:54:52.511Z,45.24
2019-05-06T15:57:19.318Z,45.06
2019-05-06T15:59:47.276Z,45.77
2019-05-06T16:02:14.086Z,46.16
2019-05-06T16:04:42.905Z,46.53
2019-05-06T16:07:12.550Z,46.43
2019-05-06T16:09:38.564Z,46.59
2019-05-06T16:12:05.496Z,46.32
2019-05-06T16:14:34.858Z,46.52
2019-05-06T16:17:01.454Z,46.88
2019-05-06T16:19:28.145Z,47.27
2019-05-06T16:21:54.969Z,47.69
2019-05-06T16:24:39.012Z,47.86
2019-05-06T16:27:05.829Z,47.39
2019-05-06T16:29:35.936Z,47.45
2019-05-06T16:32:04.151Z,47.76
2019-05-06T16:34:32.380Z,47.83
2019-05-06T16:36:59.391Z,47.98
2019-05-06T16:39:26.221Z,48.09
2019-05-06T16:41:52.988Z,48.37
2019-05-06T16:44:19.921Z,48.26
2019-05-06T16:46:46.785Z,48.84
2019-05-06T16:49:14.400Z,49.10
2019-05-06T16:51:43.948Z,49.15
2019-05-06T16:54:11.880Z,49.23
2019-05-06T16:56:58.851Z,49.02
2019-05-06T16:59:25.608Z,48.82
2019-05-06T17:01:52.417Z,48.87
2019-05-06T17:04:27.170Z,48.99
2019-05-06T17:06:53.988Z,49.17
2019-05-06T17:09:24.475Z,49.52
2019-05-06T17:11:49.775Z,49.48
2019-05-06T17:14:16.486Z,49.55
2019-05-06T17:16:43.261Z,49.95
2019-05-06T17:19:12.494Z,49.83
2019-05-06T17:21:39.041Z,50.49
2019-05-06T17:24:05.924Z,50.82
2019-05-06T17:26:33.888Z,51.04
2019-05-06T17:29:19.173Z,51.62
2019-05-06T17:31:56.322Z,51.85
2019-05-06T17:34:25.258Z,52.33
2019-05-06T17:36:53.914Z,52.44
2019-05-06T17:39:22.699Z,53.02
2019-05-06T17:41:52.078Z,53.09
2019-05-06T17:44:20.106Z,53.43
2019-05-06T17:47:06.690Z,53.71
2019-05-06T17:49:35.226Z,53.60
2019-05-06T17:52:03.985Z,52.83
2019-05-06T17:54:32.445Z,52.45
2019-05-06T17:57:02.259Z,52.85
2019-05-06T17:59:28.198Z,53.02
2019-05-06T18:01:56.949Z,53.14
2019-05-06T18:04:24.062Z,52.78
2019-05-06T18:06:52.610Z,51.96
2019-05-06T18:09:19.485Z,51.89
2019-05-06T18:11:57.846Z,51.64
2019-05-06T18:14:15.381Z,51.67
2019-05-06T18:16:42.874Z,51.82
2019-05-06T18:19:09.903Z,51.87
2019-05-06T18:21:36.753Z,52.01
2019-05-06T18:24:03.482Z,51.87
2019-05-06T18:26:32.204Z,51.94
2019-05-06T18:28:59.044Z,51.93
2019-05-06T18:31:25.758Z,51.81
2019-05-06T18:33:52.932Z,51.60
2019-05-06T18:36:22.439Z,51.62
2019-05-06T18:38:48.723Z,51.56
2019-05-06T18:41:15.645Z,51.86
2019-05-06T18:43:42.702Z,51.88
2019-05-06T18:46:09.343Z,51.86
2019-05-06T18:48:36.118Z,52.14
2019-05-06T18:51:03.304Z,52.55
2019-05-06T18:53:32.586Z,53.10
2019-05-06T18:55:58.874Z,53.23
2019-05-06T18:58:25.585Z,53.51
2019-05-06T19:00:53.098Z,53.40
2019-05-06T19:03:19.983Z,53.56
2019-05-06T19:05:46.734Z,53.62
2019-05-06T19:08:26.918Z,53.82
2019-05-06T19:10:53.973Z,54.07
2019-05-06T19:13:22.348Z,54.54
2019-05-06T19:15:49.718Z,54.93
2019-05-06T19:18:16.661Z,54.97
2019-05-06T19:20:43.702Z,55.13
2019-05-06T19:23:13.040Z,55.63
2019-05-06T19:25:39.824Z,55.65
2019-05-06T19:28:06.422Z,55.64
2019-05-06T19:30:34.154Z,55.78
2019-05-06T19:33:03.026Z,56.29
2019-05-06T19:35:32.043Z,56.55
2019-05-06T19:37:59.778Z,57.07
2019-05-06T19:40:27.523Z,57.46
2019-05-06T19:42:55.011Z,57.99
2019-05-06T19:45:22.953Z,58.07
2019-05-06T19:47:52.160Z,58.30
2019-05-06T19:50:23.543Z,58.48
2019-05-06T19:52:48.780Z,58.65
2019-05-06T19:55:15.502Z,58.90
2019-05-06T19:57:43.109Z,59.38
2019-05-06T20:00:10.541Z,60.07
2019-05-06T20:02:37.938Z,60.78
2019-05-06T20:05:07.922Z,61.53
2019-05-06T20:07:46.003Z,62.17
2019-05-06T20:10:15.168Z,63.22
2019-05-06T20:12:58.300Z,64.21
2019-05-06T20:15:33.511Z,64.51
2019-05-06T20:18:02.873Z,65.05
2019-05-06T20:20:32.642Z,65.02
2019-05-06T20:22:58.551Z,65.44
2019-05-06T20:25:25.510Z,65.54
2019-05-06T20:27:52.714Z,65.45
2019-05-06T20:30:21.775Z,65.80
2019-05-06T20:32:48.563Z,66.48
2019-05-06T20:35:15.289Z,66.85
2019-05-06T20:37:42.688Z,66.68
2019-05-06T20:40:11.729Z,66.74
2019-05-06T20:42:38.303Z,66.96
2019-05-06T20:45:06.183Z,67.41
2019-05-06T20:47:32.877Z,67.74
2019-05-06T20:50:02.214Z,68.71
2019-05-06T20:52:30.472Z,69.32
2019-05-06T20:54:57.725Z,69.53
2019-05-06T20:57:25.349Z,69.59
2019-05-06T20:59:52.642Z,69.93
2019-05-06T21:02:23.208Z,70.30
2019-05-06T21:04:48.320Z,71.13
2019-05-06T21:07:15.062Z,71.47
2019-05-06T21:09:43.173Z,71.48
2019-05-06T21:12:10.340Z,71.70
2019-05-06T21:14:37.049Z,71.96
2019-05-06T21:17:03.702Z,72.43
2019-05-06T21:19:33.179Z,73.04
2019-05-06T21:22:02.185Z,73.31
2019-05-06T21:24:29.462Z,73.80
2019-05-06T21:26:56.270Z,74.91
2019-05-06T21:29:24.368Z,74.81
2019-05-06T21:31:53.067Z,75.17
2019-05-06T21:34:22.355Z,75.68
2019-05-06T21:36:50.300Z,75.55
2019-05-06T21:39:17.042Z,75.49
2019-05-06T21:41:44.522Z,75.88
2019-05-06T21:44:13.273Z,76.00
2019-05-06T21:46:42.956Z,76.74
2019-05-06T21:49:12.130Z,76.58
2019-05-06T21:51:39.040Z,76.91
2019-05-06T21:54:06.096Z,76.85
2019-05-06T21:56:32.900Z,76.98
2019-05-06T21:59:01.825Z,77.43
2019-05-06T22:01:29.442Z,77.99
2019-05-06T22:03:56.543Z,78.42
2019-05-06T22:06:23.912Z,78.28
2019-05-06T22:08:51.872Z,77.90
2019-05-06T22:11:19.316Z,77.87
2019-05-06T22:13:57.930Z,77.86
2019-05-06T22:16:15.154Z,78.02
2019-05-06T22:18:43.216Z,78.30
2019-05-06T22:21:24.465Z,78.80
2019-05-06T22:23:53.635Z,78.90
2019-05-06T22:26:23.073Z,79.27
2019-05-06T22:28:50.324Z,80.18
2019-05-06T22:31:19.209Z,80.08
2019-05-06T22:33:45.977Z,80.47
2019-05-06T22:36:13.760Z,80.24
2019-05-06T22:38:42.329Z,80.17
2019-05-06T22:41:09.805Z,80.35
2019-05-06T22:43:37.651Z,80.86
2019-05-06T22:46:04.480Z,80.73
2019-05-06T22:48:32.454Z,80.28
2019-05-06T22:51:02.683Z,80.24
2019-05-06T22:53:29.401Z,80.58
2019-05-06T22:55:58.562Z,81.08
2019-05-06T22:58:26.167Z,81.25
2019-05-06T23:00:54.577Z,81.41
2019-05-06T23:03:29.199Z,81.70
2019-05-06T23:05:56.837Z,82.38
2019-05-06T23:08:26.770Z,82.01
2019-05-06T23:10:53.890Z,81.71
2019-05-06T23:13:23.110Z,81.51
2019-05-06T23:15:52.360Z,81.76
2019-05-06T23:18:22.283Z,82.14
2019-05-06T23:20:49.850Z,82.31
2019-05-06T23:23:17.811Z,82.09
2019-05-06T23:25:46.937Z,82.33
2019-05-06T23:28:14.722Z,82.34
2019-05-06T23:30:42.868Z,82.15
2019-05-06T23:33:11.772Z,82.05
2019-05-06T23:35:43.744Z,81.95
2019-05-06T23:38:45.805Z,81.77
2019-05-06T23:41:52.819Z,81.51
2019-05-06T23:44:56.690Z,81.49
2019-05-06T23:48:02.564Z,81.46
2019-05-06T23:51:06.795Z,81.29
2019-05-06T23:54:12.624Z,81.11
2019-05-06T23:56:43.966Z,81.09
2019-05-06T23:59:13.268Z,81.36
